Time;durP1;ratioP1;P1;durP2;ratioP2;P2;SDS_P1;SDS_P2;PMS_P1;PMS_P2;Temp;Humidity;BMP_temperature;BMP_pressure;BME280_temperature;BME280_humidity;BME280_pressure;Samples;Min_cycle;Max_cycle;Signal;HPM_P1;HPM_P2
2021/06/23 00:07:01;;;;;;;15.00;9.80;;;;;;;21.24;100.00;100284.56;712454;1209;115099;-72
2021/06/23 00:22:04;;;;;;;12.53;8.88;;;;;;;21.06;100.00;100284.35;712437;1206;115660;-72
2021/06/23 00:37:06;;;;;;;11.25;8.00;;;;;;;20.85;100.00;100304.02;712231;1208;114684;-71
2021/06/23 00:52:09;;;;;;;14.68;7.63;;;;;;;20.81;100.00;100305.45;712120;1208;114418;-73
2021/06/23 01:07:12;;;;;;;11.53;7.60;;;;;;;20.74;100.00;100292.92;712449;1205;116413;-75
2021/06/23 01:22:16;;;;;;;19.73;8.53;;;;;;;20.53;100.00;100277.06;712656;1180;114380;-73
2021/06/23 01:37:18;;;;;;;13.53;7.20;;;;;;;20.45;100.00;100286.90;712475;1206;114739;-72
2021/06/23 01:52:21;;;;;;;11.85;7.70;;;;;;;20.34;100.00;100331.94;712733;1206;114366;-73
2021/06/23 02:07:45;;;;;;;13.60;9.03;;;;;;;20.16;100.00;100341.26;712734;1204;114768;-72
2021/06/23 02:22:47;;;;;;;14.28;9.73;;;;;;;20.13;100.00;100346.98;712417;1209;114553;-73
2021/06/23 02:37:50;;;;;;;15.63;10.37;;;;;;;20.06;100.00;100373.58;712582;1191;114463;-73
2021/06/23 02:52:52;;;;;;;22.37;10.77;;;;;;;19.99;100.00;100403.84;712786;1205;116110;-72
2021/06/23 03:07:55;;;;;;;22.70;9.93;;;;;;;20.03;100.00;100408.56;712570;1209;115342;-78
2021/06/23 03:22:57;;;;;;;20.70;9.60;;;;;;;19.93;100.00;100424.08;712409;1180;114388;-72
2021/06/23 03:38:00;;;;;;;23.20;10.40;;;;;;;19.95;100.00;100435.34;714658;1205;115877;-75
2021/06/23 03:53:03;;;;;;;21.85;10.63;;;;;;;19.94;100.00;100439.02;715138;1206;115810;-74
2021/06/23 04:08:06;;;;;;;16.63;9.63;;;;;;;20.07;100.00;100448.94;713004;1205;116087;-75
2021/06/23 04:23:08;;;;;;;14.90;9.45;;;;;;;20.00;100.00;100485.36;712762;1206;115223;-74
2021/06/23 04:38:10;;;;;;;16.45;8.95;;;;;;;19.91;100.00;100496.12;712495;1187;114449;-76
2021/06/23 04:53:12;;;;;;;16.63;9.10;;;;;;;20.31;100.00;100495.63;712293;1209;115585;-75
2021/06/23 05:08:15;;;;;;;18.70;8.93;;;;;;;20.63;100.00;100512.02;715085;1169;114489;-74
2021/06/23 05:23:17;;;;;;;13.67;8.90;;;;;;;20.70;100.00;100520.90;712288;1202;114897;-74
2021/06/23 05:38:19;;;;;;;20.88;8.78;;;;;;;20.90;100.00;100517.52;712148;1205;114792;-76
2021/06/23 05:53:21;;;;;;;13.37;8.00;;;;;;;21.06;100.00;100543.02;712080;1205;114453;-75
2021/06/23 06:08:23;;;;;;;12.33;6.68;;;;;;;21.22;100.00;100542.70;712213;1206;114362;-74
2021/06/23 06:23:26;;;;;;;7.45;6.23;;;;;;;21.34;100.00;100558.95;712343;1183;114981;-75
2021/06/23 06:38:29;;;;;;;12.23;7.90;;;;;;;21.44;100.00;100559.41;712547;1202;114315;-75
2021/06/23 06:53:31;;;;;;;10.03;6.83;;;;;;;21.72;100.00;100569.16;712533;1202;114890;-77
2021/06/23 07:08:33;;;;;;;12.30;7.63;;;;;;;21.92;100.00;100565.68;712412;1206;115036;-74
2021/06/23 07:23:35;;;;;;;11.87;8.63;;;;;;;22.13;100.00;100582.56;712422;1202;115600;-75
2021/06/23 07:38:38;;;;;;;10.90;7.33;;;;;;;22.19;100.00;100605.80;712487;1203;114905;-79
2021/06/23 08:09:02;;;;;;;12.73;8.95;;;;;;;22.31;100.00;100657.59;712701;1203;114749;-78
2021/06/23 08:24:05;;;;;;;15.47;9.33;;;;;;;22.10;100.00;100662.09;712482;1179;115575;-78
2021/06/23 08:39:07;;;;;;;13.05;10.40;;;;;;;22.08;100.00;100666.80;712376;1202;114376;-78
2021/06/23 08:54:10;;;;;;;15.70;11.80;;;;;;;22.27;100.00;100672.38;712508;1203;114382;-80
2021/06/23 09:09:19;;;;;;;21.83;13.30;;;;;;;22.83;100.00;100686.42;712802;1203;114832;-85
2021/06/23 09:24:39;;;;;;;17.47;12.53;;;;;;;23.23;100.00;100694.44;712308;1202;115512;-77
2021/06/23 09:39:41;;;;;;;19.15;11.88;;;;;;;23.31;100.00;100723.65;712586;1203;114415;-73
2021/06/23 09:54:59;;;;;;;18.33;11.25;;;;;;;23.56;100.00;100736.36;712246;1203;114979;-74
2021/06/23 10:10:01;;;;;;;17.27;11.53;;;;;;;24.20;100.00;100739.21;712375;1205;114421;-79
2021/06/23 10:25:07;;;;;;;29.40;14.15;;;;;;;24.62;100.00;100731.52;712678;1202;115805;-74
2021/06/23 10:40:13;;;;;;;14.97;9.27;;;;;;;24.79;100.00;100720.30;712760;1202;115470;-74
2021/06/23 10:55:21;;;;;;;13.50;8.63;;;;;;;24.94;100.00;100725.31;712713;1202;116023;-73
2021/06/23 11:10:31;;;;;;;9.65;8.15;;;;;;;25.30;100.00;100719.20;714835;1203;114478;-74
2021/06/23 11:25:35;;;;;;;10.13;7.33;;;;;;;27.11;100.00;100703.27;712608;1202;114331;-73
2021/06/23 11:40:37;;;;;;;8.53;6.83;;;;;;;26.82;100.00;100702.34;712643;1180;114494;-75
2021/06/23 11:55:41;;;;;;;8.25;7.25;;;;;;;26.67;100.00;100719.72;712546;1202;114367;-73
2021/06/23 12:10:45;;;;;;;8.45;6.95;;;;;;;26.72;100.00;100709.11;712641;1203;114948;-74
2021/06/23 12:25:52;;;;;;;11.40;7.65;;;;;;;26.64;100.00;100697.84;712791;1202;115296;-90
2021/06/23 12:40:55;;;;;;;9.03;7.33;;;;;;;26.06;100.00;100697.45;714307;1202;114912;-83
2021/06/23 12:55:57;;;;;;;8.48;6.90;;;;;;;26.05;100.00;100693.96;717300;1206;115143;-78
2021/06/23 13:11:00;;;;;;;10.55;7.15;;;;;;;26.16;100.00;100681.60;714904;1202;114181;-78
2021/06/23 13:26:03;;;;;;;11.80;7.15;;;;;;;26.13;100.00;100674.01;712777;1202;114781;-78
2021/06/23 13:41:05;;;;;;;9.20;6.67;;;;;;;26.45;100.00;100671.03;712640;1179;114905;-84
2021/06/23 14:08:59;;;;;;;7.95;6.25;;;;;;;26.59;100.00;100695.83;718629;1192;23121;-82
2021/06/23 14:24:01;;;;;;;10.38;7.43;;;;;;;27.32;100.00;100712.60;715867;1177;113540;-81
2021/06/23 14:39:08;;;;;;;8.97;6.37;;;;;;;27.51;99.84;100737.53;715953;1200;113712;-81
2021/06/23 14:54:11;;;;;;;8.45;6.23;;;;;;;27.14;98.82;100729.70;715380;1190;113513;-81
2021/06/23 15:09:14;;;;;;;10.47;7.00;;;;;;;26.30;100.00;100741.36;715738;1179;113390;-81
2021/06/23 15:24:16;;;;;;;10.73;6.65;;;;;;;27.01;100.00;100744.21;714818;1175;114009;-79
2021/06/23 15:39:20;;;;;;;12.08;7.63;;;;;;;28.66;97.64;100708.95;714225;1203;113809;-79
2021/06/23 15:54:22;;;;;;;13.13;7.53;;;;;;;28.86;92.90;100695.77;714520;1199;114265;-83
2021/06/23 16:09:25;;;;;;;11.25;7.30;;;;;;;28.93;91.73;100681.27;720920;1200;113475;-87
2021/06/23 16:24:31;;;;;;;10.87;7.97;;;;;;;28.81;90.22;100697.56;714676;1199;114106;-87
2021/06/23 16:39:33;;;;;;;6.85;6.18;;;;;;;28.28;90.23;100729.33;714718;1199;115441;-87
2021/06/23 16:54:35;;;;;;;15.70;9.45;;;;;;;27.76;91.86;100751.78;714684;1199;114156;-75
2021/06/23 17:09:37;;;;;;;6.73;5.90;;;;;;;27.38;92.63;100746.71;714373;1199;114039;-79
2021/06/23 17:24:39;;;;;;;25.07;16.37;;;;;;;27.61;93.29;100728.02;714374;1179;113637;-86
2021/06/23 17:39:41;;;;;;;10.20;7.80;;;;;;;27.30;93.65;100711.20;716138;1192;114975;-83
2021/06/23 17:54:44;;;;;;;9.77;6.93;;;;;;;26.50;95.36;100724.95;715879;1200;114517;-83
2021/06/23 18:09:46;;;;;;;9.47;6.67;;;;;;;25.89;98.55;100706.14;715148;1174;114334;-80
2021/06/23 18:24:49;;;;;;;12.33;7.40;;;;;;;25.46;100.00;100731.23;714863;1174;114498;-82
2021/06/23 18:39:52;;;;;;;16.87;11.23;;;;;;;24.87;100.00;100746.84;714344;1177;114030;-81
2021/06/23 18:54:54;;;;;;;16.05;10.25;;;;;;;24.53;100.00;100738.19;715019;1199;115181;-85
2021/06/23 19:09:58;;;;;;;19.45;13.00;;;;;;;24.14;100.00;100722.14;716039;1199;114353;-85
2021/06/23 19:25:01;;;;;;;22.45;11.55;;;;;;;23.78;100.00;100723.50;716230;1199;114626;-86
2021/06/23 19:40:04;;;;;;;30.48;16.05;;;;;;;23.42;100.00;100732.89;716086;1199;114221;-86
2021/06/23 19:55:08;;;;;;;21.15;12.43;;;;;;;23.12;100.00;100738.66;721493;1168;114045;-86
2021/06/23 20:10:11;;;;;;;15.50;9.95;;;;;;;22.98;100.00;100740.53;723628;1178;114448;-87
2021/06/23 20:25:15;;;;;;;13.60;8.75;;;;;;;22.88;100.00;100740.93;717040;1179;113784;-86
2021/06/23 20:40:20;;;;;;;17.67;9.37;;;;;;;22.85;100.00;100754.72;717671;1199;115689;-83
2021/06/23 20:55:36;;;;;;;20.33;11.48;;;;;;;22.93;100.00;100756.38;715897;1199;115593;-83
2021/06/23 21:10:49;;;;;;;21.68;12.25;;;;;;;22.72;100.00;100752.85;715892;1199;114119;-84
2021/06/23 21:26:01;;;;;;;17.23;10.65;;;;;;;22.53;100.00;100745.66;716397;1180;114123;-84
2021/06/23 21:41:03;;;;;;;19.10;11.35;;;;;;;22.35;100.00;100765.75;716089;1199;114605;-83
2021/06/23 21:56:07;;;;;;;17.53;9.30;;;;;;;22.10;100.00;100771.62;715421;1199;115016;-84
2021/06/23 22:11:24;;;;;;;11.90;6.90;;;;;;;21.68;100.00;100764.63;717183;1200;113828;-84
2021/06/23 22:26:26;;;;;;;14.93;8.23;;;;;;;21.72;100.00;100758.70;723906;1199;114794;-85
2021/06/23 22:41:38;;;;;;;15.95;6.15;;;;;;;21.72;100.00;100755.20;715482;1199;113911;-84
2021/06/23 22:56:49;;;;;;;7.78;4.80;;;;;;;21.50;100.00;100757.09;715357;1200;113906;-84
2021/06/23 23:11:51;;;;;;;7.15;4.43;;;;;;;20.95;100.00;100742.55;715295;1199;113927;-84
2021/06/23 23:26:55;;;;;;;9.35;3.73;;;;;;;20.88;100.00;100748.86;715257;1199;113948;-84
2021/06/23 23:41:57;;;;;;;8.33;3.68;;;;;;;20.70;100.00;100754.64;715121;1176;114974;-84
2021/06/23 23:56:59;;;;;;;9.93;4.08;;;;;;;20.62;100.00;100751.04;715084;1200;114922;-84
